Portada
METAR-TAF:

METAR-TAF

Aeropuertos :

Aeropuerto Internacional Jacinto Lara

Barquisimeto, Venezuela

latitud: 10-04N, longitud: 069-19W, altitud: 613 m

Observación

El informe se hizo hace 12 horas y 33 minutos, a las 22:00 UTC
Viento 8 kt del sureste
Temperatura 31°C
Humedad 40%
Presión 1014 hPa
Visibilidad 10 km o más
Escasas nubes a una altura de 1600 ft

METAR: SVBM 202200Z 14008KT 9999 FEW016 31/16 Q1014

Hora: 06:33 (10:33 UTC)


TAF: falta

Observaciones y pronósticos meteorológicos de más de 4000 aeropuertos (mensajes METAR y TAF).

Los puntos amarillos y rojos representan las estaciones disponibles.

Ponga el ratón en el punto deseado para ver el nombre de la estación.

Haga clic para ver las observaciones y los pronósticos meteorológicos.

Para cambiar el mapa : haga clic en los botones verdes con una cruz de color negro para hacer un zoom, en el botón verde con un guión para alejar o en las flechas verdes para mapas adyacentes.


METAR-TAF: